YXNO weather

Noosa Hospital Helipad
Noosa, Queensland, Australia

Public forecast

Using degrees Celsius for public forecast. Weather courtesy of forecast.io.

METAR (pilot weather report)

Closest report is Brisbane International Airport, 59.1 nm (109.4 km) S. Retrieved 2019/04/18 13:00 UTC (2 hours ago):

YBBN 181300Z 14003KT 9999 VCSH FEW018 SCT027 20/18 Q1023 FM1300 19008KT 9999 -SHRA SCT020 SCT035

TAF (pilot weather forecast)

Closest forecast is Brisbane International Airport, 59.1 nm (109.4 km) S. Retrieved 2019/04/18 12:00 UTC (3 hours ago):

TAF YBBN 181112Z 1812/1918 19008KT 9999 -SHRA SCT020 SCT035 FM182300 13010KT 9999 -SHRA SCT025 BKN040 FM191200 13009KT 9999 -SHRA BKN025 OVC040 INTER 1818/1918 3000 SHRA BKN012